sensor_id;sensor_type;location;lat;lon;timestamp;pressure;altitude;pressure_sealevel;temperature;humidity
73525;BME280;61776;56.194;44.160;2022-09-14T16:32:05;99925.59;;;11.38;77.82
73525;BME280;61776;56.194;44.160;2022-09-14T16:34:31;99931.44;;;11.40;78.00
73525;BME280;61776;56.194;44.160;2022-09-14T16:36:57;99927.91;;;11.41;77.98
73525;BME280;61776;56.194;44.160;2022-09-14T16:39:25;99921.72;;;11.42;78.13
73525;BME280;61776;56.194;44.160;2022-09-14T16:41:52;99919.78;;;11.44;78.19
73525;BME280;61776;56.194;44.160;2022-09-14T16:44:22;99914.44;;;11.45;78.44
73525;BME280;61776;56.194;44.160;2022-09-14T16:46:50;99909.63;;;11.51;78.45
73525;BME280;61776;56.194;44.160;2022-09-14T16:49:17;99909.50;;;11.52;78.40
73525;BME280;61776;56.194;44.160;2022-09-14T16:51:43;99904.78;;;11.56;78.50
73525;BME280;61776;56.194;44.160;2022-09-14T16:54:13;99899.59;;;11.56;78.54
73525;BME280;61776;56.194;44.160;2022-09-14T16:56:39;99897.97;;;11.55;78.47
73525;BME280;61776;56.194;44.160;2022-09-14T16:59:05;99892.63;;;11.56;78.45
73525;BME280;61776;56.194;44.160;2022-09-14T17:01:34;99888.91;;;11.59;78.28
73525;BME280;61776;56.194;44.160;2022-09-14T17:04:04;99882.09;;;11.58;78.32
73525;BME280;61776;56.194;44.160;2022-09-14T17:06:33;99877.84;;;11.57;78.09
73525;BME280;61776;56.194;44.160;2022-09-14T17:09:02;99877.31;;;11.53;78.07
73525;BME280;61776;56.194;44.160;2022-09-14T17:11:31;99881.19;;;11.49;77.95
73525;BME280;61776;56.194;44.160;2022-09-14T17:13:57;99872.72;;;11.47;78.00
73525;BME280;61776;56.194;44.160;2022-09-14T17:16:25;99868.59;;;11.44;77.91
73525;BME280;61776;56.194;44.160;2022-09-14T17:18:53;99854.72;;;11.36;77.82
73525;BME280;61776;56.194;44.160;2022-09-14T17:21:22;99853.41;;;11.32;77.84
73525;BME280;61776;56.194;44.160;2022-09-14T17:23:48;99853.69;;;11.29;77.80
73525;BME280;61776;56.194;44.160;2022-09-14T17:26:15;99851.34;;;11.25;77.86
73525;BME280;61776;56.194;44.160;2022-09-14T17:28:43;99855.38;;;11.20;77.74
73525;BME280;61776;56.194;44.160;2022-09-14T17:31:17;99846.91;;;11.18;77.87
73525;BME280;61776;56.194;44.160;2022-09-14T17:33:44;99843.34;;;11.19;78.01
73525;BME280;61776;56.194;44.160;2022-09-14T17:36:10;99845.09;;;11.18;78.13
73525;BME280;61776;56.194;44.160;2022-09-14T17:38:38;99841.56;;;11.19;78.22
73525;BME280;61776;56.194;44.160;2022-09-14T17:41:14;99837.03;;;11.21;78.33
73525;BME280;61776;56.194;44.160;2022-09-14T17:43:41;99833.47;;;11.22;78.41
73525;BME280;61776;56.194;44.160;2022-09-14T17:46:11;99826.34;;;11.24;78.43
73525;BME280;61776;56.194;44.160;2022-09-14T17:48:39;99829.47;;;11.28;78.44
73525;BME280;61776;56.194;44.160;2022-09-14T17:51:07;99820.84;;;11.27;78.59
73525;BME280;61776;56.194;44.160;2022-09-14T17:53:41;99815.34;;;11.31;78.48
73525;BME280;61776;56.194;44.160;2022-09-14T17:56:10;99814.09;;;11.35;78.52
73525;BME280;61776;56.194;44.160;2022-09-14T17:58:36;99808.75;;;11.36;78.69
73525;BME280;61776;56.194;44.160;2022-09-14T18:01:12;99808.47;;;11.39;78.77
73525;BME280;61776;56.194;44.160;2022-09-14T18:03:41;99802.44;;;11.39;78.77
73525;BME280;61776;56.194;44.160;2022-09-14T18:06:11;99808.16;;;11.42;78.59
73525;BME280;61776;56.194;44.160;2022-09-14T18:08:37;99792.03;;;11.39;78.58
73525;BME280;61776;56.194;44.160;2022-09-14T18:11:15;99787.66;;;11.39;78.77
73525;BME280;61776;56.194;44.160;2022-09-14T18:13:45;99785.59;;;11.43;78.76
73525;BME280;61776;56.194;44.160;2022-09-14T18:16:13;99789.81;;;11.44;78.70
73525;BME280;61776;56.194;44.160;2022-09-14T18:18:39;99783.00;;;11.43;78.68
73525;BME280;61776;56.194;44.160;2022-09-14T18:21:05;99783.00;;;11.43;78.80
73525;BME280;61776;56.194;44.160;2022-09-14T18:23:32;99774.53;;;11.41;78.94
73525;BME280;61776;56.194;44.160;2022-09-14T18:26:00;99778.88;;;11.40;78.82
73525;BME280;61776;56.194;44.160;2022-09-14T18:28:26;99776.16;;;11.42;78.79
73525;BME280;61776;56.194;44.160;2022-09-14T18:31:04;99772.59;;;11.43;78.79
73525;BME280;61776;56.194;44.160;2022-09-14T18:33:30;99767.53;;;11.41;78.90
73525;BME280;61776;56.194;44.160;2022-09-14T18:35:56;99769.00;;;11.44;79.01
73525;BME280;61776;56.194;44.160;2022-09-14T18:38:22;99775.03;;;11.44;78.99
73525;BME280;61776;56.194;44.160;2022-09-14T18:40:48;99774.88;;;11.46;78.89
73525;BME280;61776;56.194;44.160;2022-09-14T18:43:14;99761.88;;;11.46;78.81
73525;BME280;61776;56.194;44.160;2022-09-14T18:45:42;99765.47;;;11.45;78.88
73525;BME280;61776;56.194;44.160;2022-09-14T18:48:08;99760.94;;;11.47;78.86
73525;BME280;61776;56.194;44.160;2022-09-14T18:50:36;99758.75;;;11.42;78.80
73525;BME280;61776;56.194;44.160;2022-09-14T18:53:01;99753.56;;;11.42;78.88
73525;BME280;61776;56.194;44.160;2022-09-14T18:55:28;99748.34;;;11.42;79.02
73525;BME280;61776;56.194;44.160;2022-09-14T18:57:53;99750.81;;;11.44;79.10
73525;BME280;61776;56.194;44.160;2022-09-14T19:00:19;99745.47;;;11.45;79.03
73525;BME280;61776;56.194;44.160;2022-09-14T19:02:50;99738.13;;;11.41;78.84
73525;BME280;61776;56.194;44.160;2022-09-14T19:05:17;99738.44;;;11.38;78.92
73525;BME280;61776;56.194;44.160;2022-09-14T19:07:43;99734.50;;;11.34;78.91
73525;BME280;61776;56.194;44.160;2022-09-14T19:10:09;99734.34;;;11.35;79.13
73525;BME280;61776;56.194;44.160;2022-09-14T19:12:35;99734.19;;;11.37;79.04
73525;BME280;61776;56.194;44.160;2022-09-14T19:15:01;99727.88;;;11.39;79.11
73525;BME280;61776;56.194;44.160;2022-09-14T19:17:28;99719.75;;;11.42;78.95
73525;BME280;61776;56.194;44.160;2022-09-14T19:19:54;99716.22;;;11.43;79.05
73525;BME280;61776;56.194;44.160;2022-09-14T19:22:19;99713.47;;;11.45;79.06
73525;BME280;61776;56.194;44.160;2022-09-14T19:24:45;99715.09;;;11.46;79.06
73525;BME280;61776;56.194;44.160;2022-09-14T19:27:11;99711.53;;;11.47;78.99
73525;BME280;61776;56.194;44.160;2022-09-14T19:29:38;99703.88;;;11.45;79.04
73525;BME280;61776;56.194;44.160;2022-09-14T19:32:04;99706.31;;;11.47;79.14
73525;BME280;61776;56.194;44.160;2022-09-14T19:34:30;99706.47;;;11.45;79.13
73525;BME280;61776;56.194;44.160;2022-09-14T19:37:15;99711.38;;;11.49;79.09
73525;BME280;61776;56.194;44.160;2022-09-14T19:40:32;99703.72;;;11.47;79.05
73525;BME280;61776;56.194;44.160;2022-09-14T19:42:58;99700.97;;;11.49;79.05
73525;BME280;61776;56.194;44.160;2022-09-14T19:45:24;99694.78;;;11.50;79.27
73525;BME280;61776;56.194;44.160;2022-09-14T19:47:50;99697.25;;;11.51;79.04
73525;BME280;61776;56.194;44.160;2022-09-14T19:50:16;99693.53;;;11.54;79.22
73525;BME280;61776;56.194;44.160;2022-09-14T19:52:41;99690.78;;;11.55;79.23
73525;BME280;61776;56.194;44.160;2022-09-14T19:55:08;99698.44;;;11.57;79.21
73525;BME280;61776;56.194;44.160;2022-09-14T19:57:35;99686.22;;;11.57;79.10
73525;BME280;61776;56.194;44.160;2022-09-14T20:00:04;99700.72;;;11.60;79.16
73525;BME280;61776;56.194;44.160;2022-09-14T20:02:32;99693.09;;;11.58;79.08
73525;BME280;61776;56.194;44.160;2022-09-14T20:04:57;99702.34;;;11.61;79.05
73525;BME280;61776;56.194;44.160;2022-09-14T20:07:24;99696.03;;;11.63;79.01
73525;BME280;61776;56.194;44.160;2022-09-14T20:09:49;99691.66;;;11.64;79.13
73525;BME280;61776;56.194;44.160;2022-09-14T20:12:15;99686.31;;;11.65;79.00
73525;BME280;61776;56.194;44.160;2022-09-14T20:14:41;99683.84;;;11.64;78.94
73525;BME280;61776;56.194;44.160;2022-09-14T20:17:07;99685.16;;;11.68;78.88
73525;BME280;61776;56.194;44.160;2022-09-14T20:19:33;99687.78;;;11.68;78.86
73525;BME280;61776;56.194;44.160;2022-09-14T20:22:00;99681.63;;;11.69;78.92
73525;BME280;61776;56.194;44.160;2022-09-14T20:24:27;99679.69;;;11.71;78.76
73525;BME280;61776;56.194;44.160;2022-09-14T20:26:57;99685.69;;;11.72;78.63
73525;BME280;61776;56.194;44.160;2022-09-14T20:29:25;99679.53;;;11.73;78.74
73525;BME280;61776;56.194;44.160;2022-09-14T20:31:53;99670.75;;;11.74;78.83
73525;BME280;61776;56.194;44.160;2022-09-14T20:34:20;99658.72;;;11.73;78.59
73525;BME280;61776;56.194;44.160;2022-09-14T20:36:50;99666.34;;;11.74;78.69
73525;BME280;61776;56.194;44.160;2022-09-14T20:39:18;99665.38;;;11.75;78.61
73525;BME280;61776;56.194;44.160;2022-09-14T20:41:44;99665.38;;;11.75;78.63
73525;BME280;61776;56.194;44.160;2022-09-14T20:44:10;99661.97;;;11.75;78.63
73525;BME280;61776;56.194;44.160;2022-09-14T20:46:41;99657.44;;;11.77;78.51
73525;BME280;61776;56.194;44.160;2022-09-14T20:49:13;99658.09;;;11.79;78.59
73525;BME280;61776;56.194;44.160;2022-09-14T20:51:40;99655.50;;;11.79;78.50
73525;BME280;61776;56.194;44.160;2022-09-14T20:54:10;99650.13;;;11.80;78.60
73525;BME280;61776;56.194;44.160;2022-09-14T20:56:36;99645.91;;;11.79;78.57
73525;BME280;61776;56.194;44.160;2022-09-14T20:59:04;99642.34;;;11.80;78.55
73525;BME280;61776;56.194;44.160;2022-09-14T21:01:32;99638.75;;;11.81;78.42
73525;BME280;61776;56.194;44.160;2022-09-14T21:04:12;99642.34;;;11.80;78.27
73525;BME280;61776;56.194;44.160;2022-09-14T21:06:41;99635.50;;;11.79;78.48
73525;BME280;61776;56.194;44.160;2022-09-14T21:09:09;99632.22;;;11.77;78.28
73525;BME280;61776;56.194;44.160;2022-09-14T21:11:35;99629.47;;;11.79;78.40
73525;BME280;61776;56.194;44.160;2022-09-14T21:14:02;99633.53;;;11.81;78.57
73525;BME280;61776;56.194;44.160;2022-09-14T21:16:31;99622.19;;;11.82;78.22
73525;BME280;61776;56.194;44.160;2022-09-14T21:18:59;99620.53;;;11.81;78.29
73525;BME280;61776;56.194;44.160;2022-09-14T21:21:26;99610.94;;;11.82;78.34
73525;BME280;61776;56.194;44.160;2022-09-14T21:23:53;99606.06;;;11.79;78.34
73525;BME280;61776;56.194;44.160;2022-09-14T21:26:20;99612.88;;;11.80;78.29
73525;BME280;61776;56.194;44.160;2022-09-14T21:28:46;99601.69;;;11.79;78.21
73525;BME280;61776;56.194;44.160;2022-09-14T21:31:18;99606.72;;;11.81;78.36
73525;BME280;61776;56.194;44.160;2022-09-14T21:33:46;99603.13;;;11.82;78.24
73525;BME280;61776;56.194;44.160;2022-09-14T21:36:27;99599.72;;;11.81;78.34
73525;BME280;61776;56.194;44.160;2022-09-14T21:38:55;99597.94;;;11.82;78.19
73525;BME280;61776;56.194;44.160;2022-09-14T21:41:23;99597.78;;;11.83;78.21
73525;BME280;61776;56.194;44.160;2022-09-14T21:43:49;99593.56;;;11.82;78.32
73525;BME280;61776;56.194;44.160;2022-09-14T21:46:16;99586.56;;;11.83;78.25
73525;BME280;61776;56.194;44.160;2022-09-14T21:48:43;99589.19;;;11.83;78.23
73525;BME280;61776;56.194;44.160;2022-09-14T21:51:19;99583.16;;;11.82;78.18
73525;BME280;61776;56.194;44.160;2022-09-14T21:53:47;99585.78;;;11.82;78.17
73525;BME280;61776;56.194;44.160;2022-09-14T21:56:14;99590.13;;;11.82;78.18
73525;BME280;61776;56.194;44.160;2022-09-14T21:58:41;99584.13;;;11.81;78.08
73525;BME280;61776;56.194;44.160;2022-09-14T22:01:07;99578.13;;;11.81;78.17
73525;BME280;61776;56.194;44.160;2022-09-14T22:03:33;99580.72;;;11.81;77.97
73525;BME280;61776;56.194;44.160;2022-09-14T22:06:04;99581.53;;;11.81;78.09
73525;BME280;61776;56.194;44.160;2022-09-14T22:08:32;99574.53;;;11.82;78.07
73525;BME280;61776;56.194;44.160;2022-09-14T22:11:07;99573.88;;;11.80;78.14
73525;BME280;61776;56.194;44.160;2022-09-14T22:13:34;99568.03;;;11.78;78.20
73525;BME280;61776;56.194;44.160;2022-09-14T22:16:09;99558.44;;;11.78;77.93
73525;BME280;61776;56.194;44.160;2022-09-14T22:18:37;99549.81;;;11.78;78.07
73525;BME280;61776;56.194;44.160;2022-09-14T22:21:04;99552.41;;;11.78;77.95
73525;BME280;61776;56.194;44.160;2022-09-14T22:23:31;99547.53;;;11.75;78.00
73525;BME280;61776;56.194;44.160;2022-09-14T22:25:57;99546.56;;;11.76;78.09
73525;BME280;61776;56.194;44.160;2022-09-14T22:28:23;99540.56;;;11.75;77.97
73525;BME280;61776;56.194;44.160;2022-09-14T22:30:51;99540.41;;;11.77;78.25
73525;BME280;61776;56.194;44.160;2022-09-14T22:33:21;99540.41;;;11.77;78.14
73525;BME280;61776;56.194;44.160;2022-09-14T22:35:53;99529.34;;;11.75;78.17
73525;BME280;61776;56.194;44.160;2022-09-14T22:38:21;99539.25;;;11.79;78.10
73525;BME280;61776;56.194;44.160;2022-09-14T22:40:59;99531.97;;;11.83;78.23
73525;BME280;61776;56.194;44.160;2022-09-14T22:43:26;99527.72;;;11.82;78.17
73525;BME280;61776;56.194;44.160;2022-09-14T22:45:52;99525.28;;;11.80;78.03
73525;BME280;61776;56.194;44.160;2022-09-14T22:48:19;99524.16;;;11.83;78.21
73525;BME280;61776;56.194;44.160;2022-09-14T22:50:46;99516.19;;;11.84;78.08
73525;BME280;61776;56.194;44.160;2022-09-14T22:53:12;99521.41;;;11.84;78.19
73525;BME280;61776;56.194;44.160;2022-09-14T22:55:39;99522.34;;;11.83;78.07
73525;BME280;61776;56.194;44.160;2022-09-14T22:58:07;99521.41;;;11.84;78.16
73525;BME280;61776;56.194;44.160;2022-09-14T23:00:35;99517.81;;;11.85;78.23
73525;BME280;61776;56.194;44.160;2022-09-14T23:03:01;99524.97;;;11.83;78.13
73525;BME280;61776;56.194;44.160;2022-09-14T23:05:51;99515.19;;;11.85;78.03
73525;BME280;61776;56.194;44.160;2022-09-14T23:19:38;99500.25;;;11.79;77.66
73525;BME280;61776;56.194;44.160;2022-09-14T23:22:45;99497.94;;;11.76;77.53
73525;BME280;61776;56.194;44.160;2022-09-14T23:32:37;99482.63;;;11.65;77.35
